Kriti Ruby — SVAT5 — position and weather

sailwx.info

Track history (hours):
 
Tides and Currents Weather Stations Pressure Air Temp Water Temp Dewpoint Dewpoint Depression Visibility Wind Speed Wind Dir Waves Ship Positions

Kriti Ruby

Last reported at 2014-Dec-18 05:33 UTC. Time now 2014-Dec-18 09:32 UTC.
Position N 19°08' W 094°26'.

Length 183 m; draft 10.8 m.

Type: Ship (hazmat cat A). MMSI: 240941000.

Date/timePositionNaut miles runAvg speedWind from/ knotsBaromVisibWave heightAir tempDewpointWater temp
2014-Dec-18 05:33N 19°08' W 094°26'2713.0
2014-Dec-18 03:29N 19°35' W 094°26'  
2014-Dec-15 18:24N 29°21' W 094°48'911.0
2014-Dec-15 17:33N 29°30' W 094°52'1110.7
2014-Dec-15 16:33N 29°39' W 094°58'8 7.8
2014-Dec-15 15:33N 29°45' W 095°04'5 5.5
2014-Dec-15 14:33N 29°45' W 095°10'3 2.8
2014-Dec-15 13:31N 29°44' W 095°13'0 0.0
2014-Dec-15 12:31N 29°44' W 095°13'0 0.0
2014-Dec-15 11:31N 29°44' W 095°13'0 0.0
2014-Dec-15 10:31N 29°44' W 095°13'0 0.0
2014-Dec-15 09:28N 29°44' W 095°13'0 0.0
2014-Dec-14 21:16N 29°44' W 095°13'0 0.0
2014-Dec-14 20:10N 29°44' W 095°13'0 0.0
2014-Dec-14 19:16N 29°44' W 095°13'0 0.0
2014-Dec-14 18:04N 29°44' W 095°13'0 0.0
2014-Dec-13 21:28N 29°44' W 095°13'0 0.0
2014-Dec-13 20:28N 29°44' W 095°13'0 0.0
2014-Dec-13 19:22N 29°44' W 095°13'0 0.0
2014-Dec-13 17:31N 29°44' W 095°13'0 0.0
2014-Dec-13 16:31N 29°44' W 095°13'0 0.0
2014-Dec-13 15:31N 29°44' W 095°13'839838.6
2014-Dec-13 14:31N 43°43' W 095°13'839838.4
2014-Dec-13 13:31N 29°44' W 095°13'0 0.0
2014-Dec-13 12:31N 29°44' W 095°13'0 0.0
2014-Dec-13 11:31N 29°44' W 095°13'0 0.0
2014-Dec-13 10:31N 29°44' W 095°13'0 0.0
2014-Dec-13 09:31N 29°44' W 095°13'0 0.0
2014-Dec-13 08:31N 29°44' W 095°13'0 0.0
2014-Dec-13 07:31N 29°44' W 095°13'0 0.0
2014-Dec-13 06:31N 29°44' W 095°13'0 0.0
2014-Dec-13 05:31N 29°44' W 095°13'0 0.0
2014-Dec-13 04:31N 29°44' W 095°13'0 0.0
2014-Dec-13 03:31N 29°44' W 095°13'0 0.0
2014-Dec-13 02:31N 29°44' W 095°13'0 0.0
2014-Dec-13 01:31N 29°44' W 095°13'0 0.0
2014-Dec-13 00:31N 29°44' W 095°13'0 0.0
2014-Dec-12 23:31N 29°44' W 095°13'0 0.0
2014-Dec-12 22:31N 29°44' W 095°13'0 0.0
2014-Dec-12 21:31N 29°44' W 095°13'0 0.0
2014-Dec-12 20:31N 29°44' W 095°13'0 0.0
2014-Dec-12 19:31N 29°44' W 095°13'0 0.0
2014-Dec-12 18:31N 29°44' W 095°13'0 0.0
2014-Dec-12 17:31N 29°44' W 095°13'0 0.0
2014-Dec-12 16:28N 29°44' W 095°13'0 0.0
2014-Dec-12 15:31N 29°44' W 095°13'0 0.0
2014-Dec-12 14:31N 29°44' W 095°13'0 0.3
2014-Dec-12 13:33N 29°43' W 095°13'5 4.8
2014-Dec-12 12:33N 29°44' W 095°08'5 5.1
2014-Dec-12 11:33N 29°44' W 095°02'8 8.0
2014-Dec-12 10:33N 29°37' W 094°57'1110.9
2014-Dec-12 09:33N 29°27' W 094°51'10 9.7
2014-Dec-12 08:33N 29°21' W 094°43'11 0.3
2014-Dec-10 16:16N 29°17' W 094°31'0 0.0
2014-Dec-10 13:04N 29°17' W 094°31'0 0.0
2014-Dec-10 12:16N 29°17' W 094°31'0 0.0
2014-Dec-10 11:25N 29°17' W 094°31'0 0.1
2014-Dec-10 10:31N 29°17' W 094°31'0 0.0
2014-Dec-10 09:22N 29°17' W 094°31'0 0.0
2014-Dec-10 08:28N 29°17' W 094°31'0 0.0
2014-Dec-10 07:31N 29°17' W 094°31'0 0.0
2014-Dec-10 06:31N 29°17' W 094°31'0 0.0
2014-Dec-10 05:28N 29°17' W 094°31'1 0.1
2014-Dec-09 01:33N 29°16' W 094°31'1310.8
2014-Dec-09 00:24N 29°04' W 094°25'1213.7
2014-Dec-08 23:33N 28°53' W 094°25'  
Track history (hours):
 
Tides and Currents Weather Stations Pressure Air Temp Water Temp Dewpoint Dewpoint Depression Visibility Wind Speed Wind Dir Waves Ship Positions

Kriti Ruby

Last reported at 2014-Dec-18 05:33 UTC. Time now 2014-Dec-18 09:32 UTC.
Position N 19°08' W 094°26'.

Length 183 m; draft 10.8 m.

Type: Ship (hazmat cat A). MMSI: 240941000.

Date/timePositionNaut miles runAvg speedWind from/ knotsBaromVisibWave heightAir tempDewpointWater temp
2014-Dec-18 05:33N 19°08' W 094°26'2713.0
2014-Dec-18 03:29N 19°35' W 094°26'  
2014-Dec-15 18:24N 29°21' W 094°48'911.0
2014-Dec-15 17:33N 29°30' W 094°52'1110.7
2014-Dec-15 16:33N 29°39' W 094°58'8 7.8
2014-Dec-15 15:33N 29°45' W 095°04'5 5.5
2014-Dec-15 14:33N 29°45' W 095°10'3 2.8
2014-Dec-15 13:31N 29°44' W 095°13'0 0.0
2014-Dec-15 12:31N 29°44' W 095°13'0 0.0
2014-Dec-15 11:31N 29°44' W 095°13'0 0.0
2014-Dec-15 10:31N 29°44' W 095°13'0 0.0
2014-Dec-15 09:28N 29°44' W 095°13'0 0.0
2014-Dec-14 21:16N 29°44' W 095°13'0 0.0
2014-Dec-14 20:10N 29°44' W 095°13'0 0.0
2014-Dec-14 19:16N 29°44' W 095°13'0 0.0
2014-Dec-14 18:04N 29°44' W 095°13'0 0.0
2014-Dec-13 21:28N 29°44' W 095°13'0 0.0
2014-Dec-13 20:28N 29°44' W 095°13'0 0.0
2014-Dec-13 19:22N 29°44' W 095°13'0 0.0
2014-Dec-13 17:31N 29°44' W 095°13'0 0.0
2014-Dec-13 16:31N 29°44' W 095°13'0 0.0
2014-Dec-13 15:31N 29°44' W 095°13'839838.6
2014-Dec-13 14:31N 43°43' W 095°13'839838.4
2014-Dec-13 13:31N 29°44' W 095°13'0 0.0
2014-Dec-13 12:31N 29°44' W 095°13'0 0.0
2014-Dec-13 11:31N 29°44' W 095°13'0 0.0
2014-Dec-13 10:31N 29°44' W 095°13'0 0.0
2014-Dec-13 09:31N 29°44' W 095°13'0 0.0
2014-Dec-13 08:31N 29°44' W 095°13'0 0.0
2014-Dec-13 07:31N 29°44' W 095°13'0 0.0
2014-Dec-13 06:31N 29°44' W 095°13'0 0.0
2014-Dec-13 05:31N 29°44' W 095°13'0 0.0
2014-Dec-13 04:31N 29°44' W 095°13'0 0.0
2014-Dec-13 03:31N 29°44' W 095°13'0 0.0
2014-Dec-13 02:31N 29°44' W 095°13'0 0.0
2014-Dec-13 01:31N 29°44' W 095°13'0 0.0
2014-Dec-13 00:31N 29°44' W 095°13'0 0.0
2014-Dec-12 23:31N 29°44' W 095°13'0 0.0
2014-Dec-12 22:31N 29°44' W 095°13'0 0.0
2014-Dec-12 21:31N 29°44' W 095°13'0 0.0
2014-Dec-12 20:31N 29°44' W 095°13'0 0.0
2014-Dec-12 19:31N 29°44' W 095°13'0 0.0
2014-Dec-12 18:31N 29°44' W 095°13'0 0.0
2014-Dec-12 17:31N 29°44' W 095°13'0 0.0
2014-Dec-12 16:28N 29°44' W 095°13'0 0.0
2014-Dec-12 15:31N 29°44' W 095°13'0 0.0
2014-Dec-12 14:31N 29°44' W 095°13'0 0.3
2014-Dec-12 13:33N 29°43' W 095°13'5 4.8
2014-Dec-12 12:33N 29°44' W 095°08'5 5.1
2014-Dec-12 11:33N 29°44' W 095°02'8 8.0
2014-Dec-12 10:33N 29°37' W 094°57'1110.9
2014-Dec-12 09:33N 29°27' W 094°51'10 9.7
2014-Dec-12 08:33N 29°21' W 094°43'11 0.3
2014-Dec-10 16:16N 29°17' W 094°31'0 0.0
2014-Dec-10 13:04N 29°17' W 094°31'0 0.0
2014-Dec-10 12:16N 29°17' W 094°31'0 0.0
2014-Dec-10 11:25N 29°17' W 094°31'0 0.1
2014-Dec-10 10:31N 29°17' W 094°31'0 0.0
2014-Dec-10 09:22N 29°17' W 094°31'0 0.0
2014-Dec-10 08:28N 29°17' W 094°31'0 0.0
2014-Dec-10 07:31N 29°17' W 094°31'0 0.0
2014-Dec-10 06:31N 29°17' W 094°31'0 0.0
2014-Dec-10 05:28N 29°17' W 094°31'1 0.1
2014-Dec-09 01:33N 29°16' W 094°31'1310.8
2014-Dec-09 00:24N 29°04' W 094°25'1213.7
2014-Dec-08 23:33N 28°53' W 094°25'  

Dump ship's entire track history